sensor_id;sensor_type;location;lat;lon;timestamp;pressure;altitude;pressure_sealevel;temperature;humidity
10060;BME280;5069;49.306;8.636;2022-10-16T00:02:52;100294.63;;;16.74;100.00
10060;BME280;5069;49.306;8.636;2022-10-16T00:07:11;100279.31;;;16.78;100.00
10060;BME280;5069;49.306;8.636;2022-10-16T00:11:30;100294.22;;;16.80;100.00
10060;BME280;5069;49.306;8.636;2022-10-16T00:15:36;100299.56;;;16.80;100.00
10060;BME280;5069;49.306;8.636;2022-10-16T00:23:22;100293.19;;;16.83;100.00
10060;BME280;5069;49.306;8.636;2022-10-16T00:26:23;100286.25;;;16.80;100.00
10060;BME280;5069;49.306;8.636;2022-10-16T00:29:25;100279.41;;;16.76;100.00
10060;BME280;5069;49.306;8.636;2022-10-16T00:32:26;100254.78;;;16.73;100.00
10060;BME280;5069;49.306;8.636;2022-10-16T00:35:28;100257.38;;;16.74;100.00
10060;BME280;5069;49.306;8.636;2022-10-16T00:38:30;100267.41;;;16.69;100.00
10060;BME280;5069;49.306;8.636;2022-10-16T00:41:33;100284.34;;;16.68;100.00
10060;BME280;5069;49.306;8.636;2022-10-16T00:47:52;100283.22;;;16.72;100.00
10060;BME280;5069;49.306;8.636;2022-10-16T00:50:56;100296.69;;;16.69;100.00
10060;BME280;5069;49.306;8.636;2022-10-16T00:54:00;100303.94;;;16.67;100.00
10060;BME280;5069;49.306;8.636;2022-10-16T00:57:05;100303.94;;;16.67;100.00
10060;BME280;5069;49.306;8.636;2022-10-16T01:00:09;100305.44;;;16.71;100.00
10060;BME280;5069;49.306;8.636;2022-10-16T01:03:31;100295.00;;;16.68;100.00
10060;BME280;5069;49.306;8.636;2022-10-16T01:06:49;100287.09;;;16.67;100.00
10060;BME280;5069;49.306;8.636;2022-10-16T01:10:30;100298.41;;;16.70;100.00
10060;BME280;5069;49.306;8.636;2022-10-16T01:13:35;100299.63;;;16.65;100.00
10060;BME280;5069;49.306;8.636;2022-10-16T01:16:44;100297.81;;;16.65;100.00
10060;BME280;5069;49.306;8.636;2022-10-16T01:20:02;100302.13;;;16.68;100.00
10060;BME280;5069;49.306;8.636;2022-10-16T01:26:42;100303.94;;;16.67;100.00
10060;BME280;5069;49.306;8.636;2022-10-16T01:29:53;100309.03;;;16.70;100.00
10060;BME280;5069;49.306;8.636;2022-10-16T01:36:03;100304.09;;;16.64;100.00
10060;BME280;5069;49.306;8.636;2022-10-16T01:39:10;100306.66;;;16.66;100.00
10060;BME280;5069;49.306;8.636;2022-10-16T01:42:17;100306.75;;;16.64;100.00
10060;BME280;5069;49.306;8.636;2022-10-16T01:45:21;100298.03;;;16.62;100.00
10060;BME280;5069;49.306;8.636;2022-10-16T01:48:23;100301.34;;;16.66;100.00
10060;BME280;5069;49.306;8.636;2022-10-16T01:51:26;100299.47;;;16.68;100.00
10060;BME280;5069;49.306;8.636;2022-10-16T01:54:30;100307.34;;;16.69;100.00
10060;BME280;5069;49.306;8.636;2022-10-16T01:57:36;100310.19;;;16.66;100.00
10060;BME280;5069;49.306;8.636;2022-10-16T02:00:41;100314.00;;;16.62;100.00
10060;BME280;5069;49.306;8.636;2022-10-16T02:03:44;100319.66;;;16.56;100.00
10060;BME280;5069;49.306;8.636;2022-10-16T02:06:47;100319.72;;;16.54;100.00
10060;BME280;5069;49.306;8.636;2022-10-16T02:09:49;100311.81;;;16.53;100.00
10060;BME280;5069;49.306;8.636;2022-10-16T02:12:56;100305.41;;;16.57;100.00
10060;BME280;5069;49.306;8.636;2022-10-16T02:16:00;100322.91;;;16.61;100.00
10060;BME280;5069;49.306;8.636;2022-10-16T02:19:02;100321.19;;;16.60;100.00
10060;BME280;5069;49.306;8.636;2022-10-16T02:22:06;100335.44;;;16.59;100.00
10060;BME280;5069;49.306;8.636;2022-10-16T02:25:22;100318.69;;;16.57;100.00
10060;BME280;5069;49.306;8.636;2022-10-16T02:28:39;100315.06;;;16.58;100.00
10060;BME280;5069;49.306;8.636;2022-10-16T02:31:46;100321.25;;;16.59;100.00
10060;BME280;5069;49.306;8.636;2022-10-16T02:34:50;100316.03;;;16.57;100.00
10060;BME280;5069;49.306;8.636;2022-10-16T02:37:53;100322.06;;;16.61;100.00
10060;BME280;5069;49.306;8.636;2022-10-16T02:40:55;100323.25;;;16.55;100.00
10060;BME280;5069;49.306;8.636;2022-10-16T02:43:57;100324.03;;;16.57;100.00
10060;BME280;5069;49.306;8.636;2022-10-16T02:46:59;100331.16;;;16.57;100.00
10060;BME280;5069;49.306;8.636;2022-10-16T02:50:00;100310.97;;;16.52;100.00
10060;BME280;5069;49.306;8.636;2022-10-16T02:53:02;100320.94;;;16.49;100.00
10060;BME280;5069;49.306;8.636;2022-10-16T02:56:04;100314.28;;;16.42;100.00
10060;BME280;5069;49.306;8.636;2022-10-16T02:59:05;100327.50;;;16.43;100.00
10060;BME280;5069;49.306;8.636;2022-10-16T03:02:07;100334.25;;;16.49;100.00
10060;BME280;5069;49.306;8.636;2022-10-16T03:05:09;100335.03;;;16.51;100.00
10060;BME280;5069;49.306;8.636;2022-10-16T03:08:12;100340.16;;;16.54;100.00
10060;BME280;5069;49.306;8.636;2022-10-16T03:11:13;100340.16;;;16.54;100.00
10060;BME280;5069;49.306;8.636;2022-10-16T03:14:15;100341.88;;;16.55;100.00
10060;BME280;5069;49.306;8.636;2022-10-16T03:17:17;100344.47;;;16.57;100.00
10060;BME280;5069;49.306;8.636;2022-10-16T03:20:18;100332.38;;;16.51;100.00
10060;BME280;5069;49.306;8.636;2022-10-16T03:23:20;100335.63;;;16.56;100.00
10060;BME280;5069;49.306;8.636;2022-10-16T03:26:21;100338.56;;;16.51;100.00
10060;BME280;5069;49.306;8.636;2022-10-16T03:29:23;100337.56;;;16.52;100.00
10060;BME280;5069;49.306;8.636;2022-10-16T03:32:25;100342.53;;;16.59;100.00
10060;BME280;5069;49.306;8.636;2022-10-16T03:35:26;100334.84;;;16.54;100.00
10060;BME280;5069;49.306;8.636;2022-10-16T03:38:28;100325.81;;;16.57;100.00
10060;BME280;5069;49.306;8.636;2022-10-16T03:41:29;100320.66;;;16.53;100.00
10060;BME280;5069;49.306;8.636;2022-10-16T03:44:31;100314.59;;;16.51;100.00
10060;BME280;5069;49.306;8.636;2022-10-16T03:47:32;100316.41;;;16.51;100.00
10060;BME280;5069;49.306;8.636;2022-10-16T03:50:34;100328.72;;;16.52;100.00
10060;BME280;5069;49.306;8.636;2022-10-16T03:53:36;100329.50;;;16.54;100.00
10060;BME280;5069;49.306;8.636;2022-10-16T03:56:38;100334.06;;;16.52;100.00
10060;BME280;5069;49.306;8.636;2022-10-16T03:59:39;100337.56;;;16.52;100.00
10060;BME280;5069;49.306;8.636;2022-10-16T04:02:41;100342.03;;;16.52;100.00
10060;BME280;5069;49.306;8.636;2022-10-16T04:05:42;100343.00;;;16.51;100.00
10060;BME280;5069;49.306;8.636;2022-10-16T04:08:44;100350.81;;;16.54;100.00
10060;BME280;5069;49.306;8.636;2022-10-16T04:11:45;100358.78;;;16.54;100.00
10060;BME280;5069;49.306;8.636;2022-10-16T04:14:47;100360.59;;;16.53;100.00
10060;BME280;5069;49.306;8.636;2022-10-16T04:17:48;100339.38;;;16.52;100.00
10060;BME280;5069;49.306;8.636;2022-10-16T04:20:50;100355.97;;;16.57;100.00
10060;BME280;5069;49.306;8.636;2022-10-16T04:23:51;100356.91;;;16.56;100.00
10060;BME280;5069;49.306;8.636;2022-10-16T04:26:53;100347.19;;;16.55;100.00
10060;BME280;5069;49.306;8.636;2022-10-16T04:29:54;100354.25;;;16.56;100.00
10060;BME280;5069;49.306;8.636;2022-10-16T04:32:56;100371.41;;;16.50;100.00
10060;BME280;5069;49.306;8.636;2022-10-16T04:35:58;100372.28;;;16.51;100.00
10060;BME280;5069;49.306;8.636;2022-10-16T04:39:00;100385.41;;;16.54;100.00
10060;BME280;5069;49.306;8.636;2022-10-16T04:42:02;100366.19;;;16.49;100.00
10060;BME280;5069;49.306;8.636;2022-10-16T04:45:05;100371.31;;;16.52;100.00
10060;BME280;5069;49.306;8.636;2022-10-16T04:48:06;100362.59;;;16.50;100.00
10060;BME280;5069;49.306;8.636;2022-10-16T04:51:08;100372.28;;;16.51;100.00
10060;BME280;5069;49.306;8.636;2022-10-16T04:54:10;100372.53;;;16.46;100.00
10060;BME280;5069;49.306;8.636;2022-10-16T04:57:11;100369.78;;;16.48;100.00
10060;BME280;5069;49.306;8.636;2022-10-16T05:00:13;100369.03;;;16.46;100.00
10060;BME280;5069;49.306;8.636;2022-10-16T05:03:14;100374.16;;;16.49;100.00
10060;BME280;5069;49.306;8.636;2022-10-16T05:06:16;100360.09;;;16.47;100.00
10060;BME280;5069;49.306;8.636;2022-10-16T05:09:18;100359.91;;;16.50;100.00
10060;BME280;5069;49.306;8.636;2022-10-16T05:12:19;100358.97;;;16.51;100.00
10060;BME280;5069;49.306;8.636;2022-10-16T05:15:21;100361.06;;;16.46;100.00
10060;BME280;5069;49.306;8.636;2022-10-16T05:18:26;100380.78;;;16.42;100.00
10060;BME280;5069;49.306;8.636;2022-10-16T05:21:27;100370.34;;;16.39;100.00
10060;BME280;5069;49.306;8.636;2022-10-16T05:24:28;100370.06;;;16.43;100.00
10060;BME280;5069;49.306;8.636;2022-10-16T05:27:30;100370.91;;;16.44;100.00
10060;BME280;5069;49.306;8.636;2022-10-16T05:30:31;100367.31;;;16.45;100.00
10060;BME280;5069;49.306;8.636;2022-10-16T05:33:33;100368.25;;;16.44;100.00
10060;BME280;5069;49.306;8.636;2022-10-16T05:36:35;100364.91;;;16.40;100.00
10060;BME280;5069;49.306;8.636;2022-10-16T05:39:36;100362.34;;;16.39;100.00
10060;BME280;5069;49.306;8.636;2022-10-16T05:42:38;100371.84;;;16.43;100.00
10060;BME280;5069;49.306;8.636;2022-10-16T05:45:40;100390.69;;;16.40;100.00
10060;BME280;5069;49.306;8.636;2022-10-16T05:48:42;100393.06;;;16.44;100.00
10060;BME280;5069;49.306;8.636;2022-10-16T05:51:43;100394.34;;;16.37;100.00
10060;BME280;5069;49.306;8.636;2022-10-16T05:54:45;100395.22;;;16.38;100.00
10060;BME280;5069;49.306;8.636;2022-10-16T05:57:46;100396.00;;;16.40;100.00
10060;BME280;5069;49.306;8.636;2022-10-16T06:01:11;100390.06;;;16.35;100.00
10060;BME280;5069;49.306;8.636;2022-10-16T06:04:13;100409.28;;;16.40;100.00
10060;BME280;5069;49.306;8.636;2022-10-16T06:07:14;100408.50;;;16.38;100.00
10060;BME280;5069;49.306;8.636;2022-10-16T06:10:16;100411.00;;;16.41;100.00
10060;BME280;5069;49.306;8.636;2022-10-16T06:13:17;100408.50;;;16.38;100.00
10060;BME280;5069;49.306;8.636;2022-10-16T06:16:19;100400.63;;;16.36;100.00
10060;BME280;5069;49.306;8.636;2022-10-16T06:19:21;100401.66;;;16.34;100.00
10060;BME280;5069;49.306;8.636;2022-10-16T06:22:24;100406.72;;;16.38;100.00
10060;BME280;5069;49.306;8.636;2022-10-16T06:25:25;100417.44;;;16.37;100.00
10060;BME280;5069;49.306;8.636;2022-10-16T06:28:27;100414.97;;;16.34;100.00
10060;BME280;5069;49.306;8.636;2022-10-16T06:31:29;100396.44;;;16.32;100.00
10060;BME280;5069;49.306;8.636;2022-10-16T06:34:32;100393.69;;;16.34;100.00
10060;BME280;5069;49.306;8.636;2022-10-16T06:37:34;100396.22;;;16.35;100.00
10060;BME280;5069;49.306;8.636;2022-10-16T06:40:36;100404.91;;;16.39;100.00
10060;BME280;5069;49.306;8.636;2022-10-16T06:43:37;100402.41;;;16.36;100.00
10060;BME280;5069;49.306;8.636;2022-10-16T06:46:39;100410.41;;;16.36;100.00
10060;BME280;5069;49.306;8.636;2022-10-16T06:49:40;100417.28;;;16.40;100.00
10060;BME280;5069;49.306;8.636;2022-10-16T06:52:42;100415.56;;;16.39;100.00
10060;BME280;5069;49.306;8.636;2022-10-16T06:55:43;100420.69;;;16.42;100.00
10060;BME280;5069;49.306;8.636;2022-10-16T06:58:46;100412.78;;;16.40;100.00
10060;BME280;5069;49.306;8.636;2022-10-16T07:01:47;100429.19;;;16.48;100.00
10060;BME280;5069;49.306;8.636;2022-10-16T07:04:49;100435.56;;;16.46;100.00
10060;BME280;5069;49.306;8.636;2022-10-16T07:07:51;100438.03;;;16.49;100.00
10060;BME280;5069;49.306;8.636;2022-10-16T07:11:00;100448.47;;;16.52;100.00
10060;BME280;5069;49.306;8.636;2022-10-16T07:14:02;100455.53;;;16.53;100.00
10060;BME280;5069;49.306;8.636;2022-10-16T07:17:04;100470.47;;;16.56;100.00
10060;BME280;5069;49.306;8.636;2022-10-16T07:20:06;100471.34;;;16.56;100.00
10060;BME280;5069;49.306;8.636;2022-10-16T07:23:07;100481.66;;;16.62;100.00
10060;BME280;5069;49.306;8.636;2022-10-16T07:26:09;100483.97;;;16.68;100.00
10060;BME280;5069;49.306;8.636;2022-10-16T07:29:14;100495.97;;;16.75;100.00
10060;BME280;5069;49.306;8.636;2022-10-16T07:32:16;100489.53;;;16.79;100.00
10060;BME280;5069;49.306;8.636;2022-10-16T07:35:17;100496.41;;;16.83;100.00
10060;BME280;5069;49.306;8.636;2022-10-16T07:38:20;100497.75;;;16.90;100.00
10060;BME280;5069;49.306;8.636;2022-10-16T07:41:21;100501.00;;;16.96;100.00
10060;BME280;5069;49.306;8.636;2022-10-16T07:44:23;100508.81;;;16.99;100.00
10060;BME280;5069;49.306;8.636;2022-10-16T07:47:24;100512.06;;;17.04;100.00
10060;BME280;5069;49.306;8.636;2022-10-16T07:50:26;100511.81;;;17.08;100.00
10060;BME280;5069;49.306;8.636;2022-10-16T07:53:28;100517.63;;;17.15;100.00
10060;BME280;5069;49.306;8.636;2022-10-16T07:56:30;100524.38;;;17.20;100.00
10060;BME280;5069;49.306;8.636;2022-10-16T07:59:32;100525.09;;;17.24;100.00
10060;BME280;5069;49.306;8.636;2022-10-16T08:02:34;100532.13;;;17.25;100.00
10060;BME280;5069;49.306;8.636;2022-10-16T08:05:35;100532.88;;;17.27;100.00
10060;BME280;5069;49.306;8.636;2022-10-16T08:08:37;100541.47;;;17.32;100.00
10060;BME280;5069;49.306;8.636;2022-10-16T08:11:38;100544.91;;;17.34;100.00
10060;BME280;5069;49.306;8.636;2022-10-16T08:14:40;100541.78;;;17.42;100.00
10060;BME280;5069;49.306;8.636;2022-10-16T08:18:00;100541.31;;;17.49;100.00
10060;BME280;5069;49.306;8.636;2022-10-16T08:21:02;100542.00;;;17.53;100.00
10060;BME280;5069;49.306;8.636;2022-10-16T08:24:04;100529.63;;;17.52;100.00
10060;BME280;5069;49.306;8.636;2022-10-16T08:27:06;100540.38;;;17.50;100.00
10060;BME280;5069;49.306;8.636;2022-10-16T08:30:08;100537.53;;;17.53;100.00
10060;BME280;5069;49.306;8.636;2022-10-16T08:33:10;100546.47;;;17.52;100.00
10060;BME280;5069;49.306;8.636;2022-10-16T08:36:13;100539.44;;;17.51;100.00
10060;BME280;5069;49.306;8.636;2022-10-16T08:39:15;100544.19;;;17.46;100.00
10060;BME280;5069;49.306;8.636;2022-10-16T08:42:42;100545.91;;;17.47;100.00
10060;BME280;5069;49.306;8.636;2022-10-16T08:49:15;100557.22;;;17.51;100.00
10060;BME280;5069;49.306;8.636;2022-10-16T08:52:16;100568.56;;;17.54;100.00
10060;BME280;5069;49.306;8.636;2022-10-16T08:55:27;100571.06;;;17.57;100.00
10060;BME280;5069;49.306;8.636;2022-10-16T08:58:30;100580.78;;;17.58;100.00
10060;BME280;5069;49.306;8.636;2022-10-16T09:01:39;100586.72;;;17.63;100.00
10060;BME280;5069;49.306;8.636;2022-10-16T09:05:02;100592.34;;;17.73;100.00
10060;BME280;5069;49.306;8.636;2022-10-16T09:22:48;100629.38;;;18.07;100.00
10060;BME280;5069;49.306;8.636;2022-10-16T09:25:59;100631.28;;;18.05;100.00
10060;BME280;5069;49.306;8.636;2022-10-16T09:29:03;100629.75;;;18.01;100.00
10060;BME280;5069;49.306;8.636;2022-10-16T09:32:18;100635.19;;;18.14;100.00
10060;BME280;5069;49.306;8.636;2022-10-16T09:35:24;100626.81;;;18.20;100.00
10060;BME280;5069;49.306;8.636;2022-10-16T09:38:31;100633.50;;;18.27;100.00
10060;BME280;5069;49.306;8.636;2022-10-16T09:41:35;100648.94;;;18.36;100.00
10060;BME280;5069;49.306;8.636;2022-10-16T09:44:39;100638.09;;;18.39;100.00
10060;BME280;5069;49.306;8.636;2022-10-16T09:48:01;100629.78;;;18.44;100.00
10060;BME280;5069;49.306;8.636;2022-10-16T09:55:20;100638.53;;;18.46;100.00
10060;BME280;5069;49.306;8.636;2022-10-16T09:58:32;100637.50;;;18.48;100.00
10060;BME280;5069;49.306;8.636;2022-10-16T10:07:31;100646.84;;;18.70;100.00
10060;BME280;5069;49.306;8.636;2022-10-16T10:10:42;100643.41;;;18.82;100.00
10060;BME280;5069;49.306;8.636;2022-10-16T10:13:44;100649.78;;;18.93;100.00
10060;BME280;5069;49.306;8.636;2022-10-16T10:16:46;100654.81;;;19.12;100.00
10060;BME280;5069;49.306;8.636;2022-10-16T10:22:54;100636.75;;;19.42;100.00
10060;BME280;5069;49.306;8.636;2022-10-16T10:26:11;100634.69;;;19.60;100.00
10060;BME280;5069;49.306;8.636;2022-10-16T10:33:05;100632.72;;;19.89;100.00
10060;BME280;5069;49.306;8.636;2022-10-16T10:36:23;100636.06;;;20.05;100.00
10060;BME280;5069;49.306;8.636;2022-10-16T10:39:39;100635.78;;;20.10;100.00
10060;BME280;5069;49.306;8.636;2022-10-16T10:43:02;100628.81;;;20.20;100.00
10060;BME280;5069;49.306;8.636;2022-10-16T10:46:14;100627.31;;;20.16;100.00
10060;BME280;5069;49.306;8.636;2022-10-16T10:53:21;100616.44;;;20.68;100.00
10060;BME280;5069;49.306;8.636;2022-10-16T10:56:42;100631.66;;;20.80;100.00
10060;BME280;5069;49.306;8.636;2022-10-16T11:06:33;100622.28;;;20.98;100.00
10060;BME280;5069;49.306;8.636;2022-10-16T11:09:41;100629.34;;;20.99;100.00
10060;BME280;5069;49.306;8.636;2022-10-16T11:12:46;100629.19;;;21.14;100.00
10060;BME280;5069;49.306;8.636;2022-10-16T11:15:51;100628.09;;;21.29;100.00
10060;BME280;5069;49.306;8.636;2022-10-16T11:19:12;100626.19;;;21.42;100.00
10060;BME280;5069;49.306;8.636;2022-10-16T11:22:27;100637.72;;;21.55;100.00
10060;BME280;5069;49.306;8.636;2022-10-16T11:25:32;100636.47;;;21.48;95.43
10060;BME280;5069;49.306;8.636;2022-10-16T11:28:41;100633.97;;;21.34;96.95
10060;BME280;5069;49.306;8.636;2022-10-16T11:31:48;100627.88;;;21.32;98.91
10060;BME280;5069;49.306;8.636;2022-10-16T11:35:08;100617.84;;;21.23;97.22
10060;BME280;5069;49.306;8.636;2022-10-16T11:38:28;100606.81;;;21.15;100.00
10060;BME280;5069;49.306;8.636;2022-10-16T11:41:42;100609.63;;;21.00;100.00
10060;BME280;5069;49.306;8.636;2022-10-16T11:45:13;100603.78;;;20.83;100.00
10060;BME280;5069;49.306;8.636;2022-10-16T11:48:55;100611.19;;;20.79;100.00
10060;BME280;5069;49.306;8.636;2022-10-16T11:52:16;100607.84;;;20.88;100.00
10060;BME280;5069;49.306;8.636;2022-10-16T11:55:23;100614.16;;;20.87;100.00
10060;BME280;5069;49.306;8.636;2022-10-16T12:04:49;100612.94;;;21.04;100.00
10060;BME280;5069;49.306;8.636;2022-10-16T12:08:04;100613.91;;;21.03;100.00
10060;BME280;5069;49.306;8.636;2022-10-16T12:11:35;100610.66;;;21.11;100.00
10060;BME280;5069;49.306;8.636;2022-10-16T12:14:39;100610.66;;;21.11;100.00
10060;BME280;5069;49.306;8.636;2022-10-16T12:18:01;100614.75;;;21.16;100.00
10060;BME280;5069;49.306;8.636;2022-10-16T12:21:03;100612.38;;;21.12;98.51
10060;BME280;5069;49.306;8.636;2022-10-16T12:24:41;100605.06;;;21.14;100.00
10060;BME280;5069;49.306;8.636;2022-10-16T12:27:43;100594.16;;;21.17;100.00
10060;BME280;5069;49.306;8.636;2022-10-16T12:30:56;100597.34;;;21.22;100.00
10060;BME280;5069;49.306;8.636;2022-10-16T12:34:01;100590.56;;;21.29;98.69
10060;BME280;5069;49.306;8.636;2022-10-16T12:37:10;100600.09;;;21.33;94.51
10060;BME280;5069;49.306;8.636;2022-10-16T12:43:38;100595.19;;;21.62;92.37
10060;BME280;5069;49.306;8.636;2022-10-16T12:46:40;100601.09;;;21.78;94.02
10060;BME280;5069;49.306;8.636;2022-10-16T12:49:49;100600.25;;;21.77;92.63
10060;BME280;5069;49.306;8.636;2022-10-16T12:52:50;100593.16;;;21.76;93.89
10060;BME280;5069;49.306;8.636;2022-10-16T12:56:08;100597.66;;;21.76;95.98
10060;BME280;5069;49.306;8.636;2022-10-16T13:06:20;100604.47;;;21.58;87.51
10060;BME280;5069;49.306;8.636;2022-10-16T13:09:40;100605.81;;;21.63;86.91
10060;BME280;5069;49.306;8.636;2022-10-16T13:12:55;100612.22;;;21.50;89.79
10060;BME280;5069;49.306;8.636;2022-10-16T13:26:26;100626.91;;;21.33;91.39
10060;BME280;5069;49.306;8.636;2022-10-16T13:29:32;100628.44;;;21.24;96.60
10060;BME280;5069;49.306;8.636;2022-10-16T13:32:35;100624.63;;;21.16;92.56
10060;BME280;5069;49.306;8.636;2022-10-16T13:35:36;100635.34;;;21.03;91.33
10060;BME280;5069;49.306;8.636;2022-10-16T13:38:38;100626.16;;;20.94;93.83
10060;BME280;5069;49.306;8.636;2022-10-16T13:41:40;100613.31;;;20.87;93.66
10060;BME280;5069;49.306;8.636;2022-10-16T13:44:49;100608.28;;;20.82;95.49
10060;BME280;5069;49.306;8.636;2022-10-16T13:48:03;100612.69;;;20.83;96.50
10060;BME280;5069;49.306;8.636;2022-10-16T13:51:13;100606.06;;;20.76;99.25
10060;BME280;5069;49.306;8.636;2022-10-16T13:54:15;100625.16;;;20.72;99.72
10060;BME280;5069;49.306;8.636;2022-10-16T13:57:17;100619.88;;;20.70;99.79
10060;BME280;5069;49.306;8.636;2022-10-16T14:00:28;100621.81;;;20.68;100.00
10060;BME280;5069;49.306;8.636;2022-10-16T14:03:34;100614.41;;;20.84;98.78
10060;BME280;5069;49.306;8.636;2022-10-16T14:06:41;100614.63;;;20.81;99.53
10060;BME280;5069;49.306;8.636;2022-10-16T14:09:48;100606.28;;;20.73;99.90
10060;BME280;5069;49.306;8.636;2022-10-16T14:12:55;100590.31;;;20.72;100.00
10060;BME280;5069;49.306;8.636;2022-10-16T14:15:58;100595.03;;;20.68;100.00
10060;BME280;5069;49.306;8.636;2022-10-16T14:19:03;100615.22;;;20.61;100.00
10060;BME280;5069;49.306;8.636;2022-10-16T14:22:27;100617.66;;;20.51;100.00
10060;BME280;5069;49.306;8.636;2022-10-16T14:25:32;100617.03;;;20.48;100.00
10060;BME280;5069;49.306;8.636;2022-10-16T14:28:34;100622.59;;;20.45;100.00
10060;BME280;5069;49.306;8.636;2022-10-16T14:31:36;100622.06;;;20.40;100.00
10060;BME280;5069;49.306;8.636;2022-10-16T14:34:38;100618.75;;;20.36;100.00
10060;BME280;5069;49.306;8.636;2022-10-16T14:37:43;100620.59;;;20.36;100.00
10060;BME280;5069;49.306;8.636;2022-10-16T14:40:47;100623.50;;;20.33;100.00
10060;BME280;5069;49.306;8.636;2022-10-16T14:43:53;100632.66;;;20.29;100.00
10060;BME280;5069;49.306;8.636;2022-10-16T14:46:55;100621.41;;;20.23;100.00
10060;BME280;5069;49.306;8.636;2022-10-16T14:49:57;100609.50;;;20.28;100.00
10060;BME280;5069;49.306;8.636;2022-10-16T14:53:00;100614.75;;;20.29;100.00
10060;BME280;5069;49.306;8.636;2022-10-16T14:56:14;100625.38;;;20.31;100.00
10060;BME280;5069;49.306;8.636;2022-10-16T14:59:27;100632.25;;;20.35;100.00
10060;BME280;5069;49.306;8.636;2022-10-16T15:02:32;100626.38;;;20.42;100.00
10060;BME280;5069;49.306;8.636;2022-10-16T15:05:34;100628.38;;;20.51;100.00
10060;BME280;5069;49.306;8.636;2022-10-16T15:08:35;100623.44;;;20.58;100.00
10060;BME280;5069;49.306;8.636;2022-10-16T15:11:37;100615.59;;;20.68;100.00
10060;BME280;5069;49.306;8.636;2022-10-16T15:14:38;100623.09;;;20.75;100.00
10060;BME280;5069;49.306;8.636;2022-10-16T15:17:40;100624.91;;;20.75;100.00
10060;BME280;5069;49.306;8.636;2022-10-16T15:20:41;100627.81;;;20.72;100.00
10060;BME280;5069;49.306;8.636;2022-10-16T15:23:42;100628.78;;;20.71;100.00
10060;BME280;5069;49.306;8.636;2022-10-16T15:26:44;100629.97;;;20.67;100.00
10060;BME280;5069;49.306;8.636;2022-10-16T15:29:47;100632.25;;;20.60;100.00
10060;BME280;5069;49.306;8.636;2022-10-16T15:32:48;100632.88;;;20.51;100.00
10060;BME280;5069;49.306;8.636;2022-10-16T15:35:51;100637.59;;;20.47;100.00
10060;BME280;5069;49.306;8.636;2022-10-16T15:38:52;100630.88;;;20.42;100.00
10060;BME280;5069;49.306;8.636;2022-10-16T15:41:54;100632.25;;;20.35;100.00
10060;BME280;5069;49.306;8.636;2022-10-16T15:44:56;100636.09;;;20.31;100.00
10060;BME280;5069;49.306;8.636;2022-10-16T15:47:57;100630.91;;;20.28;100.00
10060;BME280;5069;49.306;8.636;2022-10-16T15:51:06;100630.19;;;20.26;100.00
10060;BME280;5069;49.306;8.636;2022-10-16T15:54:08;100631.38;;;20.21;100.00
10060;BME280;5069;49.306;8.636;2022-10-16T15:57:10;100635.22;;;20.17;100.00
10060;BME280;5069;49.306;8.636;2022-10-16T16:00:14;100636.16;;;20.16;100.00
10060;BME280;5069;49.306;8.636;2022-10-16T16:03:15;100640.13;;;20.11;100.00
10060;BME280;5069;49.306;8.636;2022-10-16T16:06:17;100637.59;;;20.09;100.00
10060;BME280;5069;49.306;8.636;2022-10-16T16:09:18;100640.56;;;20.05;100.00
10060;BME280;5069;49.306;8.636;2022-10-16T16:12:20;100642.50;;;20.03;100.00
10060;BME280;5069;49.306;8.636;2022-10-16T16:15:22;100643.78;;;19.97;100.00
10060;BME280;5069;49.306;8.636;2022-10-16T16:18:24;100644.81;;;19.95;100.00
10060;BME280;5069;49.306;8.636;2022-10-16T16:21:26;100653.41;;;19.87;100.00
10060;BME280;5069;49.306;8.636;2022-10-16T16:24:27;100646.94;;;19.77;100.00
10060;BME280;5069;49.306;8.636;2022-10-16T16:27:29;100645.84;;;19.67;100.00
10060;BME280;5069;49.306;8.636;2022-10-16T16:30:34;100646.25;;;19.61;100.00
10060;BME280;5069;49.306;8.636;2022-10-16T16:33:35;100653.94;;;19.53;100.00
10060;BME280;5069;49.306;8.636;2022-10-16T16:36:37;100654.34;;;19.47;100.00
10060;BME280;5069;49.306;8.636;2022-10-16T16:39:38;100654.50;;;19.44;100.00
10060;BME280;5069;49.306;8.636;2022-10-16T16:42:40;100660.25;;;19.37;100.00
10060;BME280;5069;49.306;8.636;2022-10-16T16:45:41;100650.72;;;19.33;100.00
10060;BME280;5069;49.306;8.636;2022-10-16T16:48:43;100651.91;;;19.29;100.00
10060;BME280;5069;49.306;8.636;2022-10-16T16:51:44;100654.88;;;19.25;100.00
10060;BME280;5069;49.306;8.636;2022-10-16T16:54:47;100649.06;;;19.18;100.00
10060;BME280;5069;49.306;8.636;2022-10-16T16:57:53;100657.28;;;19.15;100.00
10060;BME280;5069;49.306;8.636;2022-10-16T17:00:54;100665.50;;;19.12;100.00
10060;BME280;5069;49.306;8.636;2022-10-16T17:04:09;100655.84;;;19.10;100.00
10060;BME280;5069;49.306;8.636;2022-10-16T17:07:11;100662.28;;;19.07;100.00
10060;BME280;5069;49.306;8.636;2022-10-16T17:10:13;100665.50;;;18.98;100.00
10060;BME280;5069;49.306;8.636;2022-10-16T17:13:14;100670.38;;;18.91;100.00
10060;BME280;5069;49.306;8.636;2022-10-16T17:16:16;100674.13;;;18.89;100.00
10060;BME280;5069;49.306;8.636;2022-10-16T17:19:18;100677.97;;;18.85;100.00
10060;BME280;5069;49.306;8.636;2022-10-16T17:22:20;100680.81;;;18.82;100.00
10060;BME280;5069;49.306;8.636;2022-10-16T17:25:22;100674.91;;;18.77;100.00
10060;BME280;5069;49.306;8.636;2022-10-16T17:28:25;100679.47;;;18.75;100.00
10060;BME280;5069;49.306;8.636;2022-10-16T17:31:32;100675.19;;;18.72;100.00
10060;BME280;5069;49.306;8.636;2022-10-16T17:34:34;100677.19;;;18.69;100.00
10060;BME280;5069;49.306;8.636;2022-10-16T17:37:35;100679.09;;;18.67;100.00
10060;BME280;5069;49.306;8.636;2022-10-16T17:40:37;100686.34;;;18.65;100.00